Time;durP1;ratioP1;P1;durP2;ratioP2;P2;SDS_P1;SDS_P2;PMS_P1;PMS_P2;Temp;Humidity;BMP_temperature;BMP_pressure;BME280_temperature;BME280_humidity;BME280_pressure;Samples;Min_cycle;Max_cycle;Signal;HPM_P1;HPM_P2
2021/06/16 00:00:47;;;;;;;4.25;0.52;;;14.90;80.60;;;;;;3597533;40;20376;-78
2021/06/16 00:03:13;;;;;;;2.50;0.50;;;14.90;80.50;;;;;;3597033;39;20040;-78
2021/06/16 00:05:39;;;;;;;6.18;0.77;;;14.90;80.40;;;;;;3596754;40;20060;-79
2021/06/16 00:08:05;;;;;;;2.65;0.85;;;14.90;80.30;;;;;;3597144;40;20043;-77
2021/06/16 00:10:33;;;;;;;7.88;1.67;;;14.90;80.90;;;;;;3596997;40;20045;-77
2021/06/16 00:13:01;;;;;;;6.03;2.03;;;14.90;80.90;;;;;;3597133;39;20349;-77
2021/06/16 00:15:33;;;;;;;9.93;1.88;;;14.90;80.30;;;;;;3597132;39;20132;-77
2021/06/16 00:17:59;;;;;;;4.75;1.67;;;14.80;80.30;;;;;;3597236;39;20036;-79
2021/06/16 00:20:26;;;;;;;6.00;1.35;;;14.80;80.30;;;;;;3597063;39;20047;-77
2021/06/16 00:22:55;;;;;;;5.95;1.77;;;14.80;80.60;;;;;;3597210;39;20040;-78
2021/06/16 00:25:21;;;;;;;7.53;1.02;;;14.70;79.80;;;;;;3596227;40;20048;-77
2021/06/16 00:27:47;;;;;;;7.32;1.25;;;14.70;80.10;;;;;;3597479;40;20064;-77
2021/06/16 00:30:14;;;;;;;5.07;1.30;;;14.70;80.00;;;;;;3595738;40;20043;-77
2021/06/16 00:32:42;;;;;;;6.90;0.88;;;14.70;79.80;;;;;;3597412;39;20364;-78
2021/06/16 00:35:08;;;;;;;2.65;0.80;;;14.70;79.70;;;;;;3594320;40;20051;-77
2021/06/16 00:37:35;;;;;;;5.65;0.90;;;14.70;80.00;;;;;;3596651;40;20447;-77
2021/06/16 00:40:07;;;;;;;6.30;1.92;;;14.70;80.00;;;;;;3597304;39;20044;-78
2021/06/16 00:42:33;;;;;;;3.58;0.70;;;14.70;80.10;;;;;;3597335;39;20054;-77
2021/06/16 00:44:59;;;;;;;10.88;1.42;;;14.60;79.60;;;;;;3596834;40;20330;-78
2021/06/16 00:47:24;;;;;;;4.80;1.85;;;14.60;79.70;;;;;;3596774;39;20342;-78
2021/06/16 00:49:50;;;;;;;10.15;1.55;;;14.60;80.20;;;;;;3589847;40;20052;-77
2021/06/16 00:52:17;;;;;;;4.25;1.08;;;14.60;79.70;;;;;;3595741;40;20062;-77
2021/06/16 00:54:42;;;;;;;6.20;1.23;;;14.60;79.90;;;;;;3597124;40;20036;-77
2021/06/16 00:57:08;;;;;;;3.80;1.17;;;14.50;79.90;;;;;;3596451;40;20051;-78
2021/06/16 00:59:50;;;;;;;7.60;1.90;;;14.50;80.20;;;;;;3596881;39;20072;-76
2021/06/16 01:02:18;;;;;;;11.00;0.93;;;14.50;80.60;;;;;;3596840;40;20121;-79
2021/06/16 01:04:45;;;;;;;4.15;0.70;;;14.50;80.10;;;;;;3597076;40;20035;-77
2021/06/16 01:07:13;;;;;;;8.00;1.85;;;14.50;80.00;;;;;;3596630;39;20044;-77
2021/06/16 01:09:43;;;;;;;4.05;1.13;;;14.50;80.30;;;;;;3596917;39;20048;-77
2021/06/16 01:12:31;;;;;;;4.35;1.02;;;14.50;80.30;;;;;;3596445;39;20048;-77
2021/06/16 01:15:07;;;;;;;3.50;0.90;;;14.50;81.90;;;;;;3590517;40;20032;-77
2021/06/16 01:17:52;;;;;;;3.88;0.85;;;14.50;80.00;;;;;;3596918;39;20040;-77
2021/06/16 01:20:36;;;;;;;6.15;1.42;;;14.50;80.20;;;;;;3586872;40;20324;-76
2021/06/16 01:23:09;;;;;;;7.32;1.15;;;14.50;79.70;;;;;;3576962;40;20117;-77
2021/06/16 01:25:47;;;;;;;3.13;0.38;;;14.50;80.00;;;;;;3577395;40;20117;-77
2021/06/16 01:28:15;;;;;;;6.80;0.60;;;14.60;80.20;;;;;;3586715;40;20040;-78
2021/06/16 01:30:43;;;;;;;4.97;1.38;;;14.60;79.80;;;;;;3592665;40;20050;-77
2021/06/16 01:33:11;;;;;;;6.30;1.13;;;14.60;79.40;;;;;;3596284;39;20548;-79
2021/06/16 01:35:40;;;;;;;5.43;1.75;;;14.50;79.90;;;;;;3596760;39;20048;-79
2021/06/16 01:38:08;;;;;;;15.65;2.95;;;14.50;80.90;;;;;;3595557;40;20254;-79
2021/06/16 01:40:35;;;;;;;8.95;2.95;;;14.50;80.20;;;;;;3596913;39;20046;-78
2021/06/16 01:43:03;;;;;;;9.85;3.40;;;14.40;80.30;;;;;;3596572;39;20040;-79
2021/06/16 01:45:36;;;;;;;12.85;3.80;;;14.40;80.60;;;;;;3596472;40;20040;-78
2021/06/16 01:48:03;;;;;;;8.05;3.20;;;14.40;80.90;;;;;;3596306;39;20084;-79
2021/06/16 01:50:30;;;;;;;6.70;3.35;;;14.40;80.90;;;;;;3592762;40;20068;-79
2021/06/16 01:52:59;;;;;;;8.30;3.25;;;14.30;81.10;;;;;;3596505;39;20039;-77
2021/06/16 01:55:25;;;;;;;8.35;3.40;;;14.30;81.50;;;;;;3596956;40;20689;-78
2021/06/16 01:57:54;;;;;;;9.20;2.80;;;14.30;81.40;;;;;;3596706;40;20343;-78
2021/06/16 02:00:21;;;;;;;7.13;2.08;;;14.20;81.10;;;;;;3595777;40;20055;-78
2021/06/16 02:02:47;;;;;;;7.35;1.83;;;14.30;81.90;;;;;;3595808;40;20109;-79
2021/06/16 02:05:18;;;;;;;6.93;2.67;;;14.20;81.90;;;;;;3596676;39;20074;-79
2021/06/16 02:07:51;;;;;;;8.82;4.63;;;14.20;82.10;;;;;;3593994;40;20043;-79
2021/06/16 02:10:22;;;;;;;9.50;4.32;;;14.20;82.30;;;;;;3595177;39;20048;-78
2021/06/16 02:12:50;;;;;;;9.55;5.15;;;14.20;81.80;;;;;;3596936;39;20076;-78
2021/06/16 02:15:17;;;;;;;19.58;9.35;;;14.20;82.10;;;;;;3596548;39;20046;-78
2021/06/16 02:17:52;;;;;;;17.05;10.57;;;14.20;82.80;;;;;;3596965;39;20040;-78
2021/06/16 02:20:20;;;;;;;19.38;12.45;;;14.20;82.60;;;;;;3596671;40;20532;-80
2021/06/16 02:22:47;;;;;;;26.65;15.73;;;14.20;82.70;;;;;;3596551;39;20132;-80
2021/06/16 02:25:13;;;;;;;32.90;18.52;;;14.10;82.70;;;;;;3597260;39;20032;-80
2021/06/16 02:27:39;;;;;;;22.08;17.20;;;14.10;83.10;;;;;;3597747;39;20336;-80
2021/06/16 02:30:07;;;;;;;18.02;13.68;;;14.10;82.80;;;;;;3594792;39;20048;-79
2021/06/16 02:32:34;;;;;;;18.88;12.93;;;14.10;83.40;;;;;;3597868;39;20043;-79
2021/06/16 02:35:00;;;;;;;20.50;12.57;;;14.00;83.30;;;;;;3601804;39;20096;-80
2021/06/16 02:37:27;;;;;;;27.65;13.52;;;14.00;83.50;;;;;;3577356;40;20052;-81
2021/06/16 02:40:01;;;;;;;17.92;13.35;;;14.00;84.00;;;;;;3602260;39;20266;-79
2021/06/16 02:42:28;;;;;;;18.23;12.55;;;14.00;83.80;;;;;;3606234;39;20054;-79
2021/06/16 02:44:55;;;;;;;21.33;14.70;;;14.00;84.20;;;;;;3600646;39;20075;-80
2021/06/16 02:47:21;;;;;;;22.88;14.45;;;14.00;84.20;;;;;;3599521;39;20058;-78
2021/06/16 02:49:55;;;;;;;17.48;12.00;;;13.90;84.00;;;;;;3600513;39;20036;-78
2021/06/16 02:52:22;;;;;;;21.85;14.10;;;13.90;84.50;;;;;;3606618;39;20322;-79
2021/06/16 02:54:53;;;;;;;15.93;12.57;;;13.90;83.80;;;;;;3604601;39;20052;-78
2021/06/16 02:57:22;;;;;;;14.48;10.23;;;13.90;84.00;;;;;;3603137;39;20036;-79
2021/06/16 02:59:50;;;;;;;15.05;10.40;;;13.90;84.20;;;;;;3597051;39;20039;-80
2021/06/16 03:02:20;;;;;;;18.98;12.48;;;13.90;83.50;;;;;;3596113;39;20095;-78
2021/06/16 03:04:46;;;;;;;16.92;12.68;;;13.90;84.00;;;;;;3606287;39;20087;-78
2021/06/16 03:07:14;;;;;;;17.42;11.10;;;13.90;84.20;;;;;;3606476;39;20393;-79
2021/06/16 03:09:40;;;;;;;19.73;11.80;;;13.90;84.20;;;;;;3597048;39;20050;-78
2021/06/16 03:12:08;;;;;;;13.02;8.82;;;13.90;84.30;;;;;;3606040;39;20047;-79
2021/06/16 03:14:35;;;;;;;15.45;7.72;;;13.90;83.70;;;;;;3602178;39;20035;-80
2021/06/16 03:17:01;;;;;;;12.50;9.00;;;13.90;83.80;;;;;;3600653;39;20100;-78
2021/06/16 03:19:28;;;;;;;13.20;7.75;;;13.90;83.90;;;;;;3594629;39;20058;-78
2021/06/16 03:21:57;;;;;;;15.20;6.85;;;13.90;84.10;;;;;;3606118;39;20042;-79
2021/06/16 03:24:24;;;;;;;13.45;9.57;;;13.90;84.10;;;;;;3596760;39;20632;-79
2021/06/16 03:26:51;;;;;;;17.38;11.10;;;13.90;84.10;;;;;;3606608;39;20101;-78
2021/06/16 03:29:18;;;;;;;15.38;11.07;;;13.90;83.90;;;;;;3606282;39;20095;-78
2021/06/16 03:31:46;;;;;;;20.92;16.20;;;13.90;84.20;;;;;;3602427;39;20039;-80
2021/06/16 03:34:12;;;;;;;22.95;16.13;;;14.00;83.70;;;;;;3596581;39;20043;-78
2021/06/16 03:36:42;;;;;;;17.77;12.55;;;14.00;83.90;;;;;;3606207;39;20051;-79
2021/06/16 03:39:08;;;;;;;24.48;13.90;;;14.00;84.60;;;;;;3596834;39;20135;-79
2021/06/16 03:41:38;;;;;;;15.35;10.43;;;14.00;84.70;;;;;;3606224;39;20056;-79
2021/06/16 03:44:05;;;;;;;13.82;8.95;;;14.10;85.00;;;;;;3605016;39;20039;-78
2021/06/16 03:46:36;;;;;;;23.40;10.98;;;14.10;85.50;;;;;;3606649;39;20352;-79
2021/06/16 03:49:07;;;;;;;10.73;8.35;;;14.10;84.60;;;;;;3596646;39;20071;-77
2021/06/16 03:51:39;;;;;;;13.40;9.00;;;14.10;84.40;;;;;;3596966;39;20039;-78
2021/06/16 03:54:11;;;;;;;12.25;8.55;;;14.10;84.20;;;;;;3596883;39;20048;-78
2021/06/16 03:56:46;;;;;;;12.20;7.83;;;14.10;84.60;;;;;;3568636;39;20130;-78
2021/06/16 03:59:13;;;;;;;18.73;9.88;;;14.20;84.90;;;;;;3573075;39;20046;-79
2021/06/16 04:01:57;;;;;;;12.55;7.75;;;14.10;84.80;;;;;;3606080;39;20047;-79
2021/06/16 04:04:26;;;;;;;11.18;9.52;;;14.10;87.40;;;;;;3597366;39;20061;-79
2021/06/16 04:06:53;;;;;;;15.32;8.23;;;14.20;85.60;;;;;;3602860;39;20080;-79
2021/06/16 04:09:22;;;;;;;13.68;8.63;;;14.20;84.90;;;;;;3595424;39;20074;-79
2021/06/16 04:11:48;;;;;;;8.55;7.65;;;14.20;85.00;;;;;;3605944;39;20367;-82
2021/06/16 04:14:14;;;;;;;14.13;7.63;;;14.30;84.90;;;;;;3585136;40;20055;-80
2021/06/16 04:16:42;;;;;;;10.77;7.75;;;14.40;85.10;;;;;;3596007;39;20381;-78
2021/06/16 04:19:08;;;;;;;12.45;6.55;;;14.50;85.50;;;;;;3586169;40;20107;-80
2021/06/16 04:21:35;;;;;;;11.38;5.72;;;14.60;84.70;;;;;;3578036;40;20036;-81
2021/06/16 04:24:00;;;;;;;11.52;4.72;;;14.70;84.20;;;;;;3578091;40;20048;-81
2021/06/16 04:26:38;;;;;;;10.98;4.35;;;14.70;83.80;;;;;;3584995;40;20054;-81
2021/06/16 04:29:07;;;;;;;8.02;4.50;;;14.80;84.20;;;;;;3584608;40;20044;-80
2021/06/16 04:31:35;;;;;;;7.32;3.60;;;14.80;83.90;;;;;;3581690;40;20445;-78
2021/06/16 04:34:04;;;;;;;5.75;2.63;;;14.90;83.80;;;;;;3560161;40;20406;-80
2021/06/16 04:36:33;;;;;;;7.18;3.97;;;15.00;83.50;;;;;;3574586;40;20044;-82
2021/06/16 04:38:59;;;;;;;9.43;4.07;;;15.10;83.00;;;;;;3588053;40;20044;-80
2021/06/16 04:41:25;;;;;;;8.65;4.68;;;15.20;83.00;;;;;;3588153;40;20058;-81
2021/06/16 04:43:51;;;;;;;8.63;3.90;;;15.20;82.20;;;;;;3592654;40;20060;-81
2021/06/16 04:46:17;;;;;;;9.70;4.07;;;15.30;82.10;;;;;;3596876;40;20133;-80
2021/06/16 04:48:43;;;;;;;8.30;3.50;;;15.30;82.30;;;;;;3588340;40;20050;-82
2021/06/16 04:51:09;;;;;;;7.18;2.90;;;15.40;82.20;;;;;;3579530;40;20074;-81
2021/06/16 04:53:35;;;;;;;9.05;2.60;;;15.40;82.00;;;;;;3593110;40;20078;-81
2021/06/16 04:56:02;;;;;;;7.10;2.83;;;15.50;81.90;;;;;;3587092;40;20607;-81
2021/06/16 04:58:28;;;;;;;7.32;2.00;;;15.50;81.60;;;;;;3587930;40;20044;-81
2021/06/16 05:00:55;;;;;;;8.18;2.28;;;15.60;81.50;;;;;;3597147;40;20098;-81
2021/06/16 05:03:20;;;;;;;7.05;2.17;;;15.70;81.40;;;;;;3596122;40;20048;-80
2021/06/16 05:05:46;;;;;;;6.60;3.10;;;15.80;80.90;;;;;;3588080;40;20051;-81
2021/06/16 05:08:12;;;;;;;8.65;3.45;;;15.80;80.80;;;;;;3585070;40;20341;-80
2021/06/16 05:10:38;;;;;;;8.07;3.67;;;15.90;80.60;;;;;;3589215;40;20241;-81
2021/06/16 05:13:04;;;;;;;7.47;2.40;;;15.90;80.60;;;;;;3578641;40;20105;-81
2021/06/16 05:15:30;;;;;;;8.05;3.50;;;15.90;80.40;;;;;;3579455;40;20140;-82
2021/06/16 05:17:56;;;;;;;7.15;3.58;;;15.90;80.30;;;;;;3596534;40;20036;-81
2021/06/16 05:20:25;;;;;;;6.47;2.47;;;16.00;80.10;;;;;;3585685;40;20059;-80
2021/06/16 05:22:51;;;;;;;4.30;2.08;;;16.00;80.30;;;;;;3587313;40;20044;-80
2021/06/16 05:25:17;;;;;;;6.82;2.40;;;16.10;80.30;;;;;;3594081;39;20132;-79
2021/06/16 05:27:44;;;;;;;8.85;2.97;;;16.20;80.10;;;;;;3594532;39;20042;-78
2021/06/16 05:30:11;;;;;;;9.52;3.10;;;16.20;80.20;;;;;;3602487;39;20116;-78
2021/06/16 05:32:37;;;;;;;5.80;2.65;;;16.30;80.20;;;;;;3594637;39;20055;-78
2021/06/16 05:35:04;;;;;;;4.93;2.28;;;16.50;80.20;;;;;;3604935;39;20035;-78
2021/06/16 05:37:30;;;;;;;5.85;2.80;;;16.60;80.10;;;;;;3604641;39;20314;-79
2021/06/16 05:39:56;;;;;;;6.55;3.25;;;16.70;79.90;;;;;;3596543;39;20050;-79
2021/06/16 05:42:22;;;;;;;5.70;1.80;;;16.80;79.70;;;;;;3606425;39;20046;-78
2021/06/16 05:44:48;;;;;;;9.95;3.22;;;16.90;79.90;;;;;;3592704;39;20059;-79
2021/06/16 05:47:14;;;;;;;10.20;2.83;;;17.00;80.20;;;;;;3592988;39;20043;-77
2021/06/16 05:49:40;;;;;;;7.82;3.08;;;17.10;79.90;;;;;;3593235;39;20043;-77
2021/06/16 05:52:07;;;;;;;7.32;2.40;;;17.20;79.90;;;;;;3595190;39;20088;-78
2021/06/16 05:54:32;;;;;;;5.95;3.05;;;17.30;79.70;;;;;;3602039;39;20359;-79
2021/06/16 05:56:58;;;;;;;5.25;2.50;;;17.50;79.70;;;;;;3604175;39;20047;-78
2021/06/16 05:59:25;;;;;;;8.40;2.42;;;17.60;79.40;;;;;;3604871;39;20326;-81
2021/06/16 06:01:51;;;;;;;4.82;2.88;;;17.80;79.00;;;;;;3605832;39;20070;-78
2021/06/16 06:04:16;;;;;;;3.65;2.20;;;17.90;78.20;;;;;;3596434;39;20636;-77
2021/06/16 06:06:42;;;;;;;4.40;2.00;;;17.90;77.80;;;;;;3593640;39;20246;-77
2021/06/16 06:09:10;;;;;;;11.13;3.17;;;17.90;78.20;;;;;;3605718;39;20043;-77
2021/06/16 06:11:39;;;;;;;4.97;2.22;;;18.00;77.50;;;;;;3606003;39;20051;-79
2021/06/16 06:14:06;;;;;;;8.93;3.22;;;18.00;78.00;;;;;;3593741;39;20091;-77
2021/06/16 06:16:32;;;;;;;7.10;3.40;;;18.10;77.60;;;;;;3594151;39;20055;-77
2021/06/16 06:18:58;;;;;;;10.00;2.72;;;18.10;77.90;;;;;;3598430;39;20512;-78
2021/06/16 06:21:30;;;;;;;7.63;3.25;;;18.10;77.70;;;;;;3594835;39;20059;-77
2021/06/16 06:23:57;;;;;;;6.03;3.15;;;18.20;78.10;;;;;;3592974;39;20047;-77
2021/06/16 06:26:23;;;;;;;5.78;2.35;;;18.20;78.30;;;;;;3604800;39;20050;-78
2021/06/16 06:28:49;;;;;;;6.15;3.22;;;18.30;78.10;;;;;;3604158;39;20048;-78
2021/06/16 06:31:14;;;;;;;8.10;3.40;;;18.30;78.10;;;;;;3604501;39;20607;-77
2021/06/16 06:33:40;;;;;;;6.93;3.53;;;18.40;78.20;;;;;;3605175;39;20043;-77
2021/06/16 06:36:06;;;;;;;5.60;2.72;;;18.50;78.30;;;;;;3593324;39;20431;-77
2021/06/16 06:38:32;;;;;;;7.80;3.95;;;18.70;78.10;;;;;;3593955;39;20060;-77
2021/06/16 06:40:57;;;;;;;8.90;3.67;;;18.80;77.30;;;;;;3600603;39;20042;-77
2021/06/16 06:43:23;;;;;;;7.18;3.05;;;19.00;77.10;;;;;;3594558;39;20035;-78
2021/06/16 06:45:49;;;;;;;10.32;3.30;;;19.10;77.10;;;;;;3602173;39;20036;-77
2021/06/16 06:48:15;;;;;;;8.93;3.38;;;19.20;76.40;;;;;;3594884;39;20131;-77
2021/06/16 06:50:41;;;;;;;7.25;3.40;;;19.20;76.80;;;;;;3595121;39;20055;-78
2021/06/16 06:53:07;;;;;;;8.48;4.03;;;19.30;76.50;;;;;;3601837;39;20047;-77
2021/06/16 06:55:33;;;;;;;7.72;2.72;;;19.40;76.40;;;;;;3604482;39;20051;-77
2021/06/16 06:57:59;;;;;;;7.00;2.35;;;19.60;76.00;;;;;;3604273;39;20043;-79
2021/06/16 07:00:26;;;;;;;4.60;2.67;;;19.70;76.00;;;;;;3602886;39;20661;-77
2021/06/16 07:02:52;;;;;;;5.13;2.75;;;19.80;75.40;;;;;;3601354;39;20315;-77
2021/06/16 07:05:17;;;;;;;8.25;3.20;;;20.00;75.30;;;;;;3593037;39;20050;-77
2021/06/16 07:07:43;;;;;;;8.23;2.88;;;20.20;74.70;;;;;;3603808;39;20036;-78
2021/06/16 07:10:10;;;;;;;8.40;3.67;;;20.30;74.90;;;;;;3600440;39;20048;-77
2021/06/16 07:12:36;;;;;;;5.95;3.28;;;20.30;74.40;;;;;;3592639;39;20055;-77
2021/06/16 07:15:02;;;;;;;8.50;4.05;;;20.40;75.20;;;;;;3584333;39;20683;-79
2021/06/16 07:17:28;;;;;;;6.18;3.38;;;20.60;75.30;;;;;;3602239;39;20042;-78
2021/06/16 07:19:57;;;;;;;16.23;6.07;;;20.90;74.80;;;;;;3594750;39;20051;-77
2021/06/16 07:22:23;;;;;;;7.97;4.28;;;21.30;73.60;;;;;;3601035;39;20044;-78
2021/06/16 07:24:48;;;;;;;5.53;2.75;;;21.60;72.20;;;;;;3604861;39;20121;-78
2021/06/16 07:27:14;;;;;;;9.40;3.22;;;22.10;71.70;;;;;;3603962;39;20344;-77
2021/06/16 07:29:40;;;;;;;8.43;3.60;;;22.70;70.70;;;;;;3605385;39;20071;-79
2021/06/16 07:32:08;;;;;;;8.23;4.18;;;23.40;69.60;;;;;;3586260;39;20035;-77
2021/06/16 07:34:33;;;;;;;6.65;3.25;;;23.80;68.10;;;;;;3600805;39;20047;-79
2021/06/16 07:36:59;;;;;;;11.57;4.47;;;23.60;67.60;;;;;;3593298;39;20032;-78
2021/06/16 07:39:26;;;;;;;9.93;4.25;;;23.30;68.10;;;;;;3600774;39;20047;-77
2021/06/16 07:41:52;;;;;;;7.45;3.55;;;23.10;68.30;;;;;;3603561;39;20032;-78
2021/06/16 07:44:19;;;;;;;4.60;3.63;;;23.00;68.40;;;;;;3592837;39;20078;-77
2021/06/16 07:46:45;;;;;;;7.22;3.92;;;22.80;69.30;;;;;;3604950;39;20043;-77
2021/06/16 07:49:10;;;;;;;5.95;3.63;;;22.70;69.60;;;;;;3603745;39;20043;-77
2021/06/16 07:51:36;;;;;;;9.25;3.25;;;22.60;69.90;;;;;;3595966;39;20327;-78
2021/06/16 07:54:02;;;;;;;5.80;3.70;;;22.50;70.00;;;;;;3602550;39;20227;-79
2021/06/16 07:56:28;;;;;;;7.50;3.25;;;22.50;70.00;;;;;;3602661;39;20036;-78
2021/06/16 07:58:55;;;;;;;5.00;3.38;;;22.50;70.70;;;;;;3590420;39;20040;-77
2021/06/16 08:01:21;;;;;;;5.35;3.33;;;22.60;71.10;;;;;;3600683;39;20056;-77
2021/06/16 08:03:47;;;;;;;5.40;3.42;;;22.70;71.00;;;;;;3594292;39;20058;-77
2021/06/16 08:06:13;;;;;;;8.98;3.22;;;22.80;70.90;;;;;;3602106;39;20540;-79
2021/06/16 08:08:39;;;;;;;5.63;3.58;;;22.90;70.60;;;;;;3590948;39;20062;-79
2021/06/16 08:11:04;;;;;;;7.45;4.03;;;23.10;69.80;;;;;;3603221;39;20098;-78
2021/06/16 08:13:31;;;;;;;6.85;3.08;;;23.10;69.30;;;;;;3603263;39;20080;-80
2021/06/16 08:15:58;;;;;;;7.15;2.28;;;23.20;70.30;;;;;;3604937;39;20042;-78
2021/06/16 08:18:24;;;;;;;6.70;2.60;;;23.50;69.40;;;;;;3604952;39;20051;-79
2021/06/16 08:20:50;;;;;;;5.40;2.90;;;23.60;69.50;;;;;;3605921;39;20705;-81
2021/06/16 08:23:16;;;;;;;7.43;3.63;;;23.90;70.10;;;;;;3606303;39;20486;-78
2021/06/16 08:25:42;;;;;;;5.68;2.40;;;24.20;68.90;;;;;;3606654;39;20051;-79
2021/06/16 08:28:08;;;;;;;8.52;3.47;;;24.40;68.20;;;;;;3607081;39;20050;-78
2021/06/16 08:30:34;;;;;;;6.13;3.05;;;24.60;68.20;;;;;;3599093;39;20047;-77
2021/06/16 08:33:00;;;;;;;6.35;2.95;;;24.80;67.80;;;;;;3602827;39;20050;-79
2021/06/16 08:35:25;;;;;;;6.65;2.88;;;25.00;66.70;;;;;;3586513;39;20043;-79
2021/06/16 08:37:51;;;;;;;6.32;3.33;;;25.20;66.90;;;;;;3604054;39;20044;-78
2021/06/16 08:40:18;;;;;;;5.90;3.08;;;25.40;66.60;;;;;;3587433;39;20039;-79
2021/06/16 08:42:48;;;;;;;6.90;2.20;;;25.90;66.30;;;;;;3603182;39;20253;-79
2021/06/16 08:45:16;;;;;;;6.57;2.42;;;26.20;64.60;;;;;;3604440;39;20036;-77
2021/06/16 08:47:47;;;;;;;5.45;2.92;;;26.40;65.10;;;;;;3605946;39;20047;-79
2021/06/16 08:50:14;;;;;;;5.82;2.50;;;26.80;64.10;;;;;;3606972;39;20047;-79
2021/06/16 08:52:40;;;;;;;4.22;3.00;;;27.00;63.90;;;;;;3601920;39;20052;-79
2021/06/16 08:55:14;;;;;;;7.25;2.50;;;27.20;64.10;;;;;;3590519;39;20319;-78
2021/06/16 08:57:39;;;;;;;5.13;1.95;;;27.30;60.00;;;;;;3600576;39;20039;-78
2021/06/16 09:00:08;;;;;;;9.48;2.60;;;27.10;61.70;;;;;;3603755;39;20035;-79
2021/06/16 09:02:34;;;;;;;3.88;1.30;;;26.90;62.20;;;;;;3595290;39;20047;-79
2021/06/16 09:05:01;;;;;;;2.88;1.75;;;26.90;61.40;;;;;;3604587;39;20051;-78
2021/06/16 09:07:28;;;;;;;6.47;1.67;;;26.80;60.50;;;;;;3603239;39;20050;-79
2021/06/16 09:10:18;;;;;;;5.25;1.90;;;26.80;61.30;;;;;;3594292;39;20042;-77
2021/06/16 09:12:59;;;;;;;6.70;2.28;;;26.70;54.80;;;;;;3602135;39;20042;-78
2021/06/16 09:15:27;;;;;;;3.75;1.13;;;26.70;53.70;;;;;;3594935;39;20036;-79
2021/06/16 09:18:08;;;;;;;3.80;1.20;;;26.70;61.50;;;;;;3605906;39;20050;-78
2021/06/16 09:20:42;;;;;;;5.57;1.63;;;26.80;56.00;;;;;;3605650;39;20062;-79
2021/06/16 09:23:11;;;;;;;4.22;1.40;;;26.80;58.50;;;;;;3597416;39;20050;-80
2021/06/16 09:25:37;;;;;;;4.05;1.30;;;27.00;61.40;;;;;;3591636;40;20047;-79
2021/06/16 09:28:03;;;;;;;5.53;1.15;;;27.10;60.40;;;;;;3602973;39;20050;-80
2021/06/16 09:30:32;;;;;;;4.03;0.65;;;27.30;59.90;;;;;;3593391;39;20066;-79
2021/06/16 09:33:03;;;;;;;5.35;1.88;;;27.50;61.40;;;;;;3603969;39;20512;-80
2021/06/16 09:35:32;;;;;;;4.00;1.73;;;27.70;58.70;;;;;;3594720;39;20107;-80
2021/06/16 09:38:00;;;;;;;4.22;1.35;;;27.60;58.70;;;;;;3604947;39;20043;-79
2021/06/16 09:40:29;;;;;;;7.63;1.65;;;27.40;58.60;;;;;;3596107;39;20108;-79
2021/06/16 09:43:11;;;;;;;5.65;1.90;;;27.30;57.40;;;;;;3603773;39;20039;-79
2021/06/16 09:45:38;;;;;;;8.05;1.40;;;27.20;51.10;;;;;;3594138;39;20031;-80
2021/06/16 09:48:27;;;;;;;5.15;1.38;;;27.10;58.10;;;;;;3585235;39;20319;-80
2021/06/16 09:51:14;;;;;;;4.45;1.98;;;27.20;49.10;;;;;;3592898;39;20293;-81
2021/06/16 09:53:59;;;;;;;8.00;3.35;;;27.30;50.30;;;;;;3598533;39;20563;-80
2021/06/16 09:56:26;;;;;;;3.80;1.48;;;27.30;51.90;;;;;;3600817;39;20496;-79
2021/06/16 09:58:53;;;;;;;3.85;1.50;;;27.10;56.50;;;;;;3593435;39;20039;-80
2021/06/16 10:01:40;;;;;;;6.38;2.67;;;27.00;56.50;;;;;;3603468;39;20047;-78
2021/06/16 10:04:07;;;;;;;5.30;2.10;;;26.90;56.60;;;;;;3596002;39;20050;-80
2021/06/16 10:06:32;;;;;;;7.72;1.75;;;27.10;57.20;;;;;;3595211;39;20036;-79
2021/06/16 10:09:07;;;;;;;5.60;1.85;;;27.10;56.80;;;;;;3603923;39;20081;-79
2021/06/16 10:11:34;;;;;;;3.72;1.23;;;27.30;52.50;;;;;;3604750;39;20257;-80
2021/06/16 10:14:01;;;;;;;2.58;0.80;;;27.30;55.50;;;;;;3595718;39;20039;-78
2021/06/16 10:16:28;;;;;;;4.15;0.98;;;27.40;55.40;;;;;;3606043;39;20035;-79
2021/06/16 10:18:54;;;;;;;7.78;1.15;;;27.50;55.50;;;;;;3596842;39;20341;-79
2021/06/16 10:21:24;;;;;;;4.50;1.63;;;27.50;54.10;;;;;;3603227;39;20054;-79
2021/06/16 10:23:50;;;;;;;3.85;1.10;;;27.50;54.10;;;;;;3601280;39;20052;-79
2021/06/16 10:26:28;;;;;;;3.72;1.35;;;27.50;54.90;;;;;;3602791;39;20043;-79
2021/06/16 10:29:00;;;;;;;2.13;0.80;;;27.60;49.60;;;;;;3602344;39;20040;-80
2021/06/16 10:31:40;;;;;;;3.33;1.37;;;27.90;53.20;;;;;;3591992;39;20040;-79
2021/06/16 10:34:07;;;;;;;6.07;1.55;;;28.20;51.00;;;;;;3603367;39;20718;-80
2021/06/16 10:36:33;;;;;;;7.05;0.85;;;28.50;53.80;;;;;;3605517;39;20043;-80
2021/06/16 10:38:59;;;;;;;3.10;0.57;;;28.60;52.80;;;;;;3605079;39;20054;-80
2021/06/16 10:41:37;;;;;;;2.42;0.80;;;28.80;52.40;;;;;;3606208;39;20616;-81
2021/06/16 10:44:10;;;;;;;2.72;1.00;;;28.90;46.90;;;;;;3598011;39;20100;-80
2021/06/16 10:47:01;;;;;;;5.40;1.48;;;29.10;47.80;;;;;;3602119;39;20193;-80
2021/06/16 10:49:55;;;;;;;3.92;1.42;;;29.10;45.00;;;;;;3601553;39;20051;-80
2021/06/16 10:52:25;;;;;;;5.82;0.70;;;29.10;48.90;;;;;;3603938;39;20144;-80
2021/06/16 10:55:05;;;;;;;2.95;0.77;;;29.30;51.30;;;;;;3601979;39;20047;-81
2021/06/16 10:57:33;;;;;;;2.97;0.50;;;29.50;49.80;;;;;;3594119;39;20040;-79
2021/06/16 11:00:01;;;;;;;3.40;0.60;;;29.50;49.60;;;;;;3587573;39;20046;-81
2021/06/16 11:02:34;;;;;;;2.75;0.90;;;29.40;49.00;;;;;;3596433;39;20035;-79
2021/06/16 11:05:29;;;;;;;2.35;0.70;;;29.40;46.50;;;;;;3590456;39;20081;-80
2021/06/16 11:07:59;;;;;;;4.50;0.68;;;29.30;46.20;;;;;;3602806;39;20031;-79
2021/06/16 11:10:52;;;;;;;2.75;0.60;;;29.30;48.10;;;;;;3595173;39;20039;-81
2021/06/16 11:13:42;;;;;;;6.28;0.95;;;29.20;42.20;;;;;;3567669;39;24275;-80
2021/06/16 11:16:40;;;;;;;2.67;1.02;;;29.30;44.80;;;;;;3578863;40;20048;-79
2021/06/16 11:19:26;;;;;;;4.57;0.73;;;29.40;41.20;;;;;;3590534;40;20044;-79
2021/06/16 11:21:56;;;;;;;4.32;1.33;;;29.40;44.00;;;;;;3593132;40;20092;-79
2021/06/16 11:24:42;;;;;;;3.17;0.90;;;29.50;47.50;;;;;;3589529;40;20043;-79
2021/06/16 11:27:08;;;;;;;2.55;0.80;;;29.70;48.00;;;;;;3589278;40;20048;-80
2021/06/16 11:30:07;;;;;;;2.47;0.50;;;30.00;47.10;;;;;;3589520;40;20394;-80
2021/06/16 11:32:33;;;;;;;4.18;1.13;;;30.10;41.80;;;;;;3582904;40;20133;-80
2021/06/16 11:34:59;;;;;;;3.47;0.57;;;30.00;46.00;;;;;;3592344;40;20307;-80
2021/06/16 11:37:59;;;;;;;4.60;0.75;;;30.00;46.20;;;;;;3594426;40;20040;-81
2021/06/16 11:40:26;;;;;;;2.97;0.45;;;30.10;42.40;;;;;;3588617;40;20529;-80
2021/06/16 11:42:53;;;;;;;2.67;0.80;;;30.30;46.80;;;;;;3580627;40;20270;-81
2021/06/16 11:45:19;;;;;;;2.50;0.40;;;30.50;46.40;;;;;;3589808;40;20043;-79
2021/06/16 11:48:00;;;;;;;2.53;0.65;;;30.60;45.10;;;;;;3590196;40;20048;-79
2021/06/16 11:50:28;;;;;;;2.58;0.68;;;30.50;43.60;;;;;;3581087;40;20047;-79
2021/06/16 11:53:02;;;;;;;3.22;1.23;;;30.60;45.90;;;;;;3592375;40;20145;-79
2021/06/16 11:55:45;;;;;;;4.38;0.80;;;30.60;42.50;;;;;;3593666;40;20097;-79
2021/06/16 11:58:38;;;;;;;3.30;1.05;;;30.30;41.10;;;;;;3593536;40;20068;-79
2021/06/16 12:01:05;;;;;;;;;;;30.10;42.50;;;;;;3589872;40;20138;-80
2021/06/16 12:03:31;;;;;;;2.22;0.60;;;29.90;42.50;;;;;;3594634;40;20039;-78
2021/06/16 12:06:15;;;;;;;3.97;0.73;;;30.00;46.50;;;;;;3596542;40;20048;-78
2021/06/16 12:08:42;;;;;;;4.57;0.68;;;29.90;44.40;;;;;;3596216;40;20052;-79
2021/06/16 12:11:19;;;;;;;2.85;0.82;;;29.80;47.60;;;;;;3596637;40;20063;-78
2021/06/16 12:14:02;;;;;;;4.68;0.68;;;29.70;44.60;;;;;;3585979;40;20049;-78
2021/06/16 12:16:30;;;;;;;2.95;0.52;;;29.90;44.00;;;;;;3589065;40;20036;-78
2021/06/16 12:19:20;;;;;;;3.50;0.90;;;29.90;43.80;;;;;;3592070;40;20048;-78
2021/06/16 12:21:53;;;;;;;1.05;0.52;;;29.60;42.40;;;;;;3594526;40;20047;-78
2021/06/16 12:24:25;;;;;;;2.58;0.50;;;29.30;44.50;;;;;;3585747;40;20039;-78
2021/06/16 12:27:00;;;;;;;4.13;1.05;;;29.20;45.60;;;;;;3595391;40;20059;-78
2021/06/16 12:29:28;;;;;;;4.22;0.50;;;29.20;44.40;;;;;;3591247;40;20052;-76
2021/06/16 12:31:56;;;;;;;3.28;0.40;;;29.00;42.90;;;;;;3596163;40;20155;-77
2021/06/16 12:37:13;;;;;;;3.63;0.95;;;28.50;43.80;;;;;;3592724;40;20048;-78
2021/06/16 12:40:01;;;;;;;2.45;0.40;;;28.50;43.50;;;;;;3583344;40;20115;-78
2021/06/16 12:42:44;;;;;;;2.70;0.40;;;28.60;44.70;;;;;;3593034;40;20040;-77
2021/06/16 12:45:36;;;;;;;2.60;0.32;;;28.70;42.00;;;;;;3584357;40;20040;-77
2021/06/16 12:48:19;;;;;;;1.67;0.80;;;28.90;43.30;;;;;;3591715;40;20052;-79
2021/06/16 12:51:12;;;;;;;2.33;0.40;;;29.10;41.80;;;;;;3594743;40;20331;-77
2021/06/16 12:53:39;;;;;;;3.33;0.85;;;29.10;41.50;;;;;;3591703;40;20043;-77
2021/06/16 12:56:07;;;;;;;3.80;0.80;;;29.10;42.90;;;;;;3595577;39;20270;-77
2021/06/16 12:58:45;;;;;;;4.00;0.50;;;29.00;43.40;;;;;;3592186;40;20046;-78